createdAt,value
2018-05-18T00:01:12.320Z,26.15
2018-05-18T00:03:39.988Z,25.73
2018-05-18T00:06:07.573Z,27.40
2018-05-18T00:08:35.065Z,27.70
2018-05-18T00:11:02.964Z,26.30
2018-05-18T00:13:30.496Z,27.70
2018-05-18T00:15:58.024Z,31.50
2018-05-18T00:18:25.957Z,27.95
2018-05-18T00:20:53.490Z,26.67
2018-05-18T00:23:21.193Z,24.55
2018-05-18T00:25:48.790Z,27.23
2018-05-18T00:28:16.353Z,30.05
2018-05-18T00:30:43.890Z,26.58
2018-05-18T00:33:11.616Z,27.40
2018-05-18T00:35:39.157Z,25.65
2018-05-18T00:38:06.684Z,26.55
2018-05-18T00:40:34.503Z,25.90
2018-05-18T00:43:02.048Z,27.10
2018-05-18T00:45:29.593Z,25.17
2018-05-18T00:47:57.598Z,24.73
2018-05-18T00:50:25.135Z,25.27
2018-05-18T00:52:52.664Z,26.15
2018-05-18T00:55:42.084Z,24.65
2018-05-18T00:58:10.169Z,25.58
2018-05-18T01:00:37.699Z,25.00
2018-05-18T01:03:05.261Z,24.98
2018-05-18T01:05:32.792Z,24.17
2018-05-18T01:08:00.373Z,25.73
2018-05-18T01:10:27.937Z,22.92
2018-05-18T01:12:55.473Z,25.25
2018-05-18T01:15:23.008Z,25.20
2018-05-18T01:17:50.748Z,22.67
2018-05-18T01:20:18.272Z,23.85
2018-05-18T01:22:45.809Z,24.80
2018-05-18T01:25:13.621Z,22.60
2018-05-18T01:27:41.146Z,23.92
2018-05-18T01:30:08.693Z,21.35
2018-05-18T01:32:36.257Z,23.33
2018-05-18T01:35:04.499Z,23.90
2018-05-18T01:37:32.027Z,20.90
2018-05-18T01:39:59.576Z,23.95
2018-05-18T01:42:27.112Z,21.62
2018-05-18T01:44:54.641Z,22.45
2018-05-18T01:47:23.205Z,23.80
2018-05-18T01:49:50.773Z,22.08
2018-05-18T01:52:18.284Z,21.90
2018-05-18T01:54:46.065Z,21.50
2018-05-18T01:57:13.597Z,20.27
2018-05-18T01:59:41.124Z,22.13
2018-05-18T02:02:09.048Z,21.65
2018-05-18T02:04:36.570Z,22.13
2018-05-18T02:07:04.093Z,21.90
2018-05-18T02:09:31.859Z,22.00
2018-05-18T02:11:59.379Z,21.35
2018-05-18T02:14:26.907Z,21.05
2018-05-18T02:16:54.460Z,20.67
2018-05-18T02:19:21.985Z,20.60
2018-05-18T02:21:49.513Z,21.52
2018-05-18T02:24:17.392Z,19.62
2018-05-18T02:26:44.920Z,19.27
2018-05-18T02:29:12.453Z,21.25
2018-05-18T02:31:40.196Z,17.92
2018-05-18T02:34:07.724Z,19.35
2018-05-18T02:36:35.254Z,19.60
2018-05-18T02:39:03.039Z,18.75
2018-05-18T02:41:30.609Z,21.20
2018-05-18T02:43:58.132Z,18.08
2018-05-18T02:46:25.944Z,15.50
2018-05-18T02:48:53.807Z,18.02
2018-05-18T02:51:21.710Z,18.00
2018-05-18T02:53:49.450Z,18.50
2018-05-18T02:56:18.141Z,18.10
2018-05-18T02:58:45.912Z,19.92
2018-05-18T03:01:13.617Z,19.30
2018-05-18T03:03:41.159Z,18.77
2018-05-18T03:06:08.694Z,17.12
2018-05-18T03:08:36.529Z,19.05
2018-05-18T03:11:04.056Z,17.50
2018-05-18T03:13:31.588Z,17.17
2018-05-18T03:15:59.312Z,17.80
2018-05-18T03:18:27.403Z,18.73
2018-05-18T03:20:54.934Z,16.98
2018-05-18T03:23:22.808Z,18.20
2018-05-18T03:25:50.330Z,16.87
2018-05-18T03:28:17.873Z,18.62
2018-05-18T03:30:45.692Z,17.02
2018-05-18T03:33:13.237Z,18.15
2018-05-18T03:35:40.763Z,19.67
2018-05-18T03:38:08.328Z,19.58
2018-05-18T03:40:35.852Z,16.85
2018-05-18T03:43:03.460Z,15.60
2018-05-18T03:45:31.260Z,15.93
2018-05-18T03:47:58.781Z,15.65
2018-05-18T03:50:26.309Z,14.82
2018-05-18T03:52:54.257Z,16.23
2018-05-18T03:55:21.828Z,17.62
2018-05-18T03:57:49.353Z,16.75
2018-05-18T04:00:17.120Z,16.62
2018-05-18T04:02:56.468Z,17.33
2018-05-18T04:05:36.117Z,16.52
2018-05-18T04:08:10.354Z,18.10
2018-05-18T04:10:37.928Z,15.55
2018-05-18T04:13:05.449Z,14.05
2018-05-18T04:15:32.972Z,17.37
2018-05-18T04:18:01.068Z,17.25
2018-05-18T04:20:28.592Z,18.73
2018-05-18T04:22:56.713Z,17.17
2018-05-18T04:25:24.479Z,14.25
2018-05-18T04:27:52.020Z,16.55
2018-05-18T04:30:19.619Z,14.77
2018-05-18T04:32:47.150Z,15.90
2018-05-18T04:35:14.673Z,14.98
2018-05-18T04:37:42.222Z,15.57
2018-05-18T04:40:10.021Z,16.90
2018-05-18T04:42:37.598Z,14.40
2018-05-18T04:45:05.125Z,15.70
2018-05-18T04:47:33.053Z,15.88
2018-05-18T04:50:00.581Z,15.85
2018-05-18T04:52:28.114Z,12.93
2018-05-18T04:54:55.909Z,14.43
2018-05-18T04:57:23.439Z,13.45
2018-05-18T04:59:50.965Z,13.75
2018-05-18T05:02:18.681Z,12.88
2018-05-18T05:04:46.207Z,13.30
2018-05-18T05:07:13.733Z,14.20
2018-05-18T05:09:41.304Z,13.75
2018-05-18T05:12:08.854Z,13.75
2018-05-18T05:14:36.380Z,14.38
2018-05-18T05:17:04.130Z,14.57
2018-05-18T05:19:31.661Z,13.75
2018-05-18T05:21:59.195Z,13.50
2018-05-18T05:24:26.908Z,13.13
2018-05-18T05:26:54.428Z,13.52
2018-05-18T05:29:21.956Z,12.73
2018-05-18T05:31:49.707Z,13.27
2018-05-18T05:34:17.236Z,11.50
2018-05-18T05:36:44.827Z,12.57
2018-05-18T05:39:12.572Z,13.82
2018-05-18T05:41:40.240Z,13.05
2018-05-18T05:44:07.774Z,12.75
2018-05-18T05:46:35.349Z,14.05
2018-05-18T05:49:03.954Z,13.48
2018-05-18T05:51:31.490Z,12.45
2018-05-18T05:53:59.686Z,12.93
2018-05-18T05:56:27.233Z,13.52
2018-05-18T05:58:54.756Z,12.63
2018-05-18T06:01:22.772Z,13.53
2018-05-18T06:03:50.291Z,12.20
2018-05-18T06:06:17.825Z,12.03
2018-05-18T06:08:45.537Z,12.43
2018-05-18T06:11:13.060Z,13.13
2018-05-18T06:13:40.596Z,13.20
2018-05-18T06:16:08.307Z,12.63
2018-05-18T06:18:35.832Z,12.30
2018-05-18T06:21:03.372Z,11.37
2018-05-18T06:23:31.192Z,11.13
2018-05-18T06:25:58.722Z,12.77
2018-05-18T06:28:26.256Z,16.33
2018-05-18T06:30:53.994Z,14.63
2018-05-18T06:33:21.541Z,12.47
2018-05-18T06:35:49.069Z,13.17
2018-05-18T06:38:17.388Z,12.20
2018-05-18T06:40:44.924Z,12.73
2018-05-18T06:43:12.445Z,9.53
2018-05-18T06:45:39.996Z,10.43
2018-05-18T06:48:07.529Z,11.80
2018-05-18T06:50:35.055Z,10.70
2018-05-18T06:53:02.851Z,12.30
2018-05-18T06:55:30.390Z,9.93
2018-05-18T06:57:57.916Z,11.20
2018-05-18T07:00:25.484Z,12.50
2018-05-18T07:02:53.017Z,12.97
2018-05-18T07:05:20.548Z,11.10
2018-05-18T07:07:48.133Z,11.70
2018-05-18T07:10:15.661Z,12.00
2018-05-18T07:12:43.205Z,11.90
2018-05-18T07:15:10.773Z,12.90
2018-05-18T07:17:38.303Z,13.00
2018-05-18T07:20:05.828Z,11.93
2018-05-18T07:22:34.060Z,13.13
2018-05-18T07:25:01.588Z,12.10
2018-05-18T07:27:29.118Z,13.00
2018-05-18T07:29:56.689Z,12.57
2018-05-18T07:32:24.213Z,11.23
2018-05-18T07:34:51.733Z,12.20
2018-05-18T07:37:20.352Z,12.40
2018-05-18T07:39:47.873Z,13.13
2018-05-18T07:42:15.403Z,13.27
2018-05-18T07:44:43.111Z,14.40
2018-05-18T07:47:10.637Z,12.73
2018-05-18T07:49:38.168Z,12.73
2018-05-18T07:52:05.891Z,13.10
2018-05-18T07:54:33.409Z,14.17
2018-05-18T07:57:00.928Z,13.00
2018-05-18T07:59:28.734Z,14.37
2018-05-18T08:01:56.216Z,13.37
2018-05-18T08:04:23.750Z,14.53
2018-05-18T08:06:51.322Z,13.83
2018-05-18T08:09:18.855Z,13.97
2018-05-18T08:11:46.393Z,13.70
2018-05-18T08:14:14.136Z,13.60
2018-05-18T08:16:41.668Z,13.80
2018-05-18T08:19:10.091Z,15.70
2018-05-18T08:21:38.543Z,13.43
2018-05-18T08:24:07.051Z,13.93
2018-05-18T08:26:34.581Z,14.07
2018-05-18T08:29:14.341Z,12.80
2018-05-18T08:31:41.864Z,14.60
2018-05-18T08:34:09.400Z,14.53
2018-05-18T08:36:37.121Z,14.00
2018-05-18T08:39:04.661Z,14.00
2018-05-18T08:41:33.281Z,13.47
2018-05-18T08:44:01.455Z,13.60
2018-05-18T08:46:28.985Z,12.63
2018-05-18T08:48:56.637Z,14.30
2018-05-18T08:51:24.419Z,13.53
2018-05-18T08:53:51.944Z,14.20
2018-05-18T08:56:19.473Z,13.00
2018-05-18T08:58:47.203Z,13.60
2018-05-18T09:01:14.729Z,14.90
2018-05-18T09:03:42.254Z,14.30
2018-05-18T09:06:10.718Z,13.67
2018-05-18T09:08:39.301Z,11.50
2018-05-18T09:11:06.835Z,14.23
2018-05-18T09:13:34.713Z,14.53
2018-05-18T09:16:02.228Z,14.90
2018-05-18T09:18:30.501Z,14.90
2018-05-18T09:20:58.218Z,15.50
2018-05-18T09:23:25.743Z,13.93
2018-05-18T09:25:53.299Z,15.83
2018-05-18T09:28:21.669Z,14.93
2018-05-18T09:30:49.197Z,13.73
2018-05-18T09:33:16.778Z,12.43
2018-05-18T09:35:44.485Z,14.37
2018-05-18T09:38:12.008Z,14.20
2018-05-18T09:40:39.532Z,15.10
2018-05-18T09:43:07.249Z,14.60
2018-05-18T09:45:34.785Z,17.23
2018-05-18T09:48:02.325Z,13.30
2018-05-18T09:50:30.048Z,12.90
2018-05-18T09:52:57.581Z,14.40
2018-05-18T09:55:25.276Z,14.10
2018-05-18T09:57:52.821Z,12.80
2018-05-18T10:00:20.344Z,47.50
2018-05-18T10:02:47.869Z,15.00
2018-05-18T10:05:15.713Z,12.67
2018-05-18T10:07:43.241Z,13.50
2018-05-18T10:10:10.767Z,13.20
2018-05-18T10:12:38.420Z,12.53
2018-05-18T10:15:05.960Z,12.67
2018-05-18T10:17:33.489Z,13.13
2018-05-18T10:20:01.197Z,11.20
2018-05-18T10:22:28.718Z,11.60
2018-05-18T10:24:56.252Z,12.60
2018-05-18T10:27:24.056Z,11.80
2018-05-18T10:29:51.584Z,11.07
2018-05-18T10:32:19.119Z,11.30
2018-05-18T10:34:46.689Z,10.70
2018-05-18T10:37:14.224Z,11.07
2018-05-18T10:39:41.780Z,11.27
2018-05-18T10:42:09.345Z,10.50
2018-05-18T10:44:36.973Z,11.57
2018-05-18T10:47:05.469Z,11.57
2018-05-18T10:49:33.501Z,10.23
2018-05-18T10:52:01.007Z,11.13
2018-05-18T10:54:28.529Z,12.30
2018-05-18T10:56:56.232Z,11.10
2018-05-18T10:59:23.789Z,11.87
2018-05-18T11:01:52.356Z,10.63
2018-05-18T11:04:20.109Z,11.40
2018-05-18T11:06:47.639Z,9.87
2018-05-18T11:09:15.161Z,9.10
2018-05-18T11:11:42.749Z,11.47
2018-05-18T11:14:10.358Z,10.30
2018-05-18T11:16:37.813Z,10.43
2018-05-18T11:19:05.676Z,10.40
2018-05-18T11:21:33.231Z,10.43
2018-05-18T11:24:00.753Z,10.30
2018-05-18T11:26:28.445Z,10.97
2018-05-18T11:28:55.980Z,10.13
2018-05-18T11:31:23.508Z,10.33
2018-05-18T11:33:51.059Z,10.57
2018-05-18T11:36:18.589Z,10.57
2018-05-18T11:38:46.108Z,9.73
2018-05-18T11:41:13.669Z,10.57
2018-05-18T11:43:41.193Z,9.93
2018-05-18T11:46:08.727Z,10.77
2018-05-18T11:48:36.477Z,11.20
2018-05-18T11:51:04.019Z,11.67
2018-05-18T11:53:31.550Z,10.73
2018-05-18T11:55:59.151Z,8.90
2018-05-18T11:58:26.685Z,10.10
2018-05-18T12:00:54.289Z,8.77
2018-05-18T12:03:22.001Z,8.97
2018-05-18T12:05:49.529Z,9.00
2018-05-18T12:08:17.120Z,8.10
2018-05-18T12:10:44.818Z,9.13
2018-05-18T12:13:12.341Z,9.37
2018-05-18T12:15:39.860Z,9.10
2018-05-18T12:18:07.420Z,8.13
2018-05-18T12:20:34.945Z,10.60
2018-05-18T12:23:02.480Z,9.80
2018-05-18T12:25:30.195Z,9.00
2018-05-18T12:27:57.726Z,7.60
2018-05-18T12:30:25.245Z,8.80
2018-05-18T12:32:52.817Z,8.70
2018-05-18T12:35:20.330Z,7.67
2018-05-18T12:37:48.405Z,8.13
2018-05-18T12:40:16.252Z,8.87
2018-05-18T12:42:43.779Z,10.27
2018-05-18T12:45:11.313Z,9.63
2018-05-18T12:47:39.233Z,9.33
2018-05-18T12:50:06.769Z,9.77
2018-05-18T12:52:35.212Z,10.10
2018-05-18T12:55:03.143Z,8.47
2018-05-18T12:57:30.692Z,8.50
2018-05-18T12:59:58.220Z,8.70
2018-05-18T13:02:25.868Z,9.10
2018-05-18T13:04:53.394Z,9.47
2018-05-18T13:07:20.911Z,9.83
2018-05-18T13:09:48.563Z,8.17
2018-05-18T13:12:16.096Z,9.03
2018-05-18T13:14:43.638Z,8.60
2018-05-18T13:17:11.499Z,10.03
2018-05-18T13:19:39.029Z,8.60
2018-05-18T13:22:06.565Z,9.53
2018-05-18T13:24:35.514Z,7.73
2018-05-18T13:27:03.050Z,8.30
2018-05-18T13:29:30.580Z,7.37
2018-05-18T13:31:58.268Z,7.43
2018-05-18T13:34:26.363Z,7.60
2018-05-18T13:36:53.884Z,7.93
2018-05-18T13:39:21.470Z,7.70
2018-05-18T13:41:48.993Z,6.10
2018-05-18T13:44:16.544Z,8.40
2018-05-18T13:46:44.130Z,6.47
2018-05-18T13:49:11.818Z,6.30
2018-05-18T13:51:39.389Z,5.60
2018-05-18T13:54:07.124Z,7.20
2018-05-18T13:56:34.653Z,6.90
2018-05-18T13:59:02.181Z,6.67
2018-05-18T14:01:29.735Z,6.13
2018-05-18T14:03:57.368Z,6.33
2018-05-18T14:06:25.966Z,6.00
2018-05-18T14:08:53.815Z,5.70
2018-05-18T14:11:21.495Z,6.90
2018-05-18T14:13:49.093Z,6.40
2018-05-18T14:16:16.668Z,7.20
2018-05-18T14:18:44.763Z,6.27
2018-05-18T14:21:12.346Z,6.60
2018-05-18T14:23:39.905Z,6.50
2018-05-18T14:26:07.514Z,6.70
2018-05-18T14:28:35.126Z,6.13
2018-05-18T14:31:02.990Z,6.80
2018-05-18T14:33:30.510Z,6.30
2018-05-18T14:35:58.046Z,5.60
2018-05-18T14:38:25.732Z,6.40
2018-05-18T14:40:53.333Z,6.43
2018-05-18T14:43:20.995Z,7.30
2018-05-18T14:45:48.640Z,6.03
2018-05-18T14:48:16.300Z,7.70
2018-05-18T14:50:43.893Z,7.67
2018-05-18T14:53:12.035Z,6.30
2018-05-18T14:55:39.557Z,6.33
2018-05-18T14:58:07.177Z,7.63
2018-05-18T15:00:34.853Z,7.30
2018-05-18T15:03:02.503Z,7.23
2018-05-18T15:05:30.266Z,6.20
2018-05-18T15:07:58.125Z,7.77
2018-05-18T15:10:25.787Z,8.27
2018-05-18T15:12:53.367Z,7.77
2018-05-18T15:15:21.350Z,7.97
2018-05-18T15:17:49.196Z,8.10
2018-05-18T15:20:17.314Z,8.47
2018-05-18T15:22:45.338Z,8.57
2018-05-18T15:25:12.981Z,7.90
2018-05-18T15:27:40.963Z,9.60
2018-05-18T15:30:08.696Z,8.33
2018-05-18T15:32:36.687Z,7.83
2018-05-18T15:35:05.068Z,9.90
2018-05-18T15:37:32.869Z,9.50
2018-05-18T15:40:00.455Z,9.10
2018-05-18T15:42:28.254Z,9.67
2018-05-18T15:44:57.052Z,9.10
2018-05-18T15:47:26.448Z,8.83
2018-05-18T15:49:54.790Z,8.87
2018-05-18T15:52:22.336Z,9.77
2018-05-18T15:54:49.852Z,9.77
2018-05-18T15:57:17.388Z,10.77
2018-05-18T15:59:45.150Z,10.33
2018-05-18T16:02:12.751Z,11.67
2018-05-18T16:04:40.273Z,9.20
2018-05-18T16:07:08.026Z,11.00
2018-05-18T16:09:35.549Z,10.90
2018-05-18T16:12:03.088Z,11.13
2018-05-18T16:14:30.657Z,10.23
2018-05-18T16:16:58.190Z,9.63
2018-05-18T16:19:25.712Z,9.30
2018-05-18T16:21:53.502Z,11.57
2018-05-18T16:24:21.101Z,11.40
2018-05-18T16:26:48.709Z,11.47
2018-05-18T16:29:16.470Z,9.57
2018-05-18T16:31:44.037Z,11.10
2018-05-18T16:34:11.576Z,10.60
2018-05-18T16:36:39.360Z,11.10
2018-05-18T16:39:06.971Z,10.43
2018-05-18T16:41:34.580Z,11.30
2018-05-18T16:44:02.159Z,10.20
2018-05-18T16:46:29.680Z,10.63
2018-05-18T16:48:57.377Z,11.10
2018-05-18T16:51:25.244Z,9.63
2018-05-18T16:53:53.399Z,10.00
2018-05-18T16:56:20.929Z,10.33
2018-05-18T16:58:48.620Z,10.63
2018-05-18T17:01:16.165Z,11.20
2018-05-18T17:03:43.719Z,10.87
2018-05-18T17:06:11.645Z,10.67
2018-05-18T17:08:39.278Z,11.53
2018-05-18T17:11:07.153Z,10.17
2018-05-18T17:13:34.885Z,10.17
2018-05-18T17:16:02.441Z,12.27
2018-05-18T17:18:30.024Z,10.80
2018-05-18T17:20:57.871Z,11.10
2018-05-18T17:23:25.397Z,9.70
2018-05-18T17:25:53.037Z,10.10
2018-05-18T17:28:20.817Z,10.90
2018-05-18T17:30:48.852Z,11.70
2018-05-18T17:33:16.392Z,11.90
2018-05-18T17:35:44.167Z,12.20
2018-05-18T17:38:12.004Z,11.93
2018-05-18T17:40:39.708Z,12.60
2018-05-18T17:43:08.594Z,12.67
2018-05-18T17:45:36.466Z,11.77
2018-05-18T17:48:04.332Z,11.33
2018-05-18T17:50:32.608Z,12.13
2018-05-18T17:53:00.365Z,11.10
2018-05-18T17:55:28.035Z,12.00
2018-05-18T17:57:55.902Z,10.83
2018-05-18T18:00:23.526Z,12.60
2018-05-18T18:02:51.429Z,15.20
2018-05-18T18:05:19.177Z,13.23
2018-05-18T18:07:46.959Z,12.37
2018-05-18T18:10:14.623Z,11.93
2018-05-18T18:12:42.681Z,12.13
2018-05-18T18:15:10.559Z,13.03
2018-05-18T18:17:38.422Z,10.70
2018-05-18T18:20:06.599Z,10.63
2018-05-18T18:22:34.484Z,10.97
2018-05-18T18:25:02.331Z,11.40
2018-05-18T18:27:30.189Z,11.53
2018-05-18T18:29:57.966Z,10.63
2018-05-18T18:32:25.606Z,10.40
2018-05-18T18:34:53.387Z,10.27
2018-05-18T18:37:21.150Z,10.57
2018-05-18T18:39:48.746Z,10.83
2018-05-18T18:42:16.968Z,11.00
2018-05-18T18:44:44.751Z,11.30
2018-05-18T18:47:12.316Z,10.70
2018-05-18T18:49:39.960Z,11.60
2018-05-18T18:52:07.549Z,12.60
2018-05-18T18:54:35.499Z,11.23
2018-05-18T18:57:03.346Z,13.20
2018-05-18T18:59:30.877Z,14.73
2018-05-18T19:01:58.689Z,13.10
2018-05-18T19:04:26.969Z,14.30
2018-05-18T19:06:54.797Z,15.90
2018-05-18T19:09:22.565Z,13.87
2018-05-18T19:11:50.669Z,13.73
2018-05-18T19:14:18.999Z,13.70
2018-05-18T19:16:46.811Z,14.57
2018-05-18T19:19:14.780Z,14.60
2018-05-18T19:21:42.626Z,14.60
2018-05-18T19:24:10.570Z,17.23
2018-05-18T19:26:39.712Z,16.77
2018-05-18T19:29:07.952Z,16.63
2018-05-18T19:31:36.243Z,15.43
2018-05-18T19:34:04.130Z,15.63
2018-05-18T19:36:32.389Z,15.30
2018-05-18T19:39:00.272Z,13.50
2018-05-18T19:41:28.242Z,15.40
2018-05-18T19:43:56.107Z,16.40
2018-05-18T19:46:23.921Z,15.83
2018-05-18T19:48:52.150Z,17.10
2018-05-18T19:51:20.015Z,15.87
2018-05-18T19:53:49.727Z,16.30
2018-05-18T19:56:17.864Z,16.50
2018-05-18T19:58:45.803Z,16.30
2018-05-18T20:01:13.544Z,16.00
2018-05-18T20:03:42.012Z,16.93
2018-05-18T20:06:10.154Z,18.90
2018-05-18T20:08:38.358Z,18.67
2018-05-18T20:11:06.774Z,18.80
2018-05-18T20:13:35.119Z,18.33
2018-05-18T20:16:02.997Z,17.47
2018-05-18T20:18:31.375Z,17.40
2018-05-18T20:20:59.337Z,16.77
2018-05-18T20:23:27.198Z,18.23
2018-05-18T20:25:56.291Z,19.43
2018-05-18T20:28:24.158Z,18.50
2018-05-18T20:30:52.744Z,19.00
2018-05-18T20:33:20.815Z,20.27
2018-05-18T20:35:48.884Z,20.20
2018-05-18T20:38:16.952Z,18.77
2018-05-18T20:40:44.603Z,19.27
2018-05-18T20:43:12.484Z,19.10
2018-05-18T20:45:40.350Z,20.43
2018-05-18T20:48:08.729Z,18.90
2018-05-18T20:50:36.988Z,19.30
2018-05-18T20:53:04.872Z,19.60
2018-05-18T20:55:33.676Z,17.50
2018-05-18T20:58:01.494Z,19.93
2018-05-18T21:00:29.496Z,20.87
2018-05-18T21:02:57.977Z,18.40
2018-05-18T21:05:25.961Z,17.77
2018-05-18T21:07:53.812Z,18.67
2018-05-18T21:10:21.679Z,20.50
2018-05-18T21:12:49.752Z,19.50
2018-05-18T21:15:17.522Z,18.17
2018-05-18T21:17:45.691Z,20.20
2018-05-18T21:20:13.819Z,19.53
2018-05-18T21:22:41.685Z,20.30
2018-05-18T21:25:09.598Z,19.83
2018-05-18T21:27:37.203Z,20.13
2018-05-18T21:30:05.021Z,19.77
2018-05-18T21:32:33.092Z,18.40
2018-05-18T21:35:01.877Z,18.73
2018-05-18T21:37:29.542Z,20.33
2018-05-18T21:39:57.412Z,22.00
2018-05-18T21:42:25.174Z,18.20
2018-05-18T21:44:53.363Z,17.87
2018-05-18T21:47:21.156Z,19.80
2018-05-18T21:49:48.923Z,19.77
2018-05-18T21:52:16.594Z,18.90
2018-05-18T21:54:44.313Z,18.67
2018-05-18T21:57:11.965Z,18.80
2018-05-18T21:59:39.611Z,16.87
2018-05-18T22:02:07.287Z,18.00
2018-05-18T22:04:34.827Z,16.90
2018-05-18T22:07:02.611Z,17.17
2018-05-18T22:09:30.477Z,17.37
2018-05-18T22:11:58.021Z,17.17
2018-05-18T22:14:25.544Z,15.70
2018-05-18T22:16:53.142Z,16.90
2018-05-18T22:19:20.665Z,15.77
2018-05-18T22:21:48.189Z,17.20
2018-05-18T22:24:15.749Z,16.23
2018-05-18T22:26:43.264Z,18.10
2018-05-18T22:29:10.805Z,18.25
2018-05-18T22:31:38.440Z,16.80
2018-05-18T22:34:05.972Z,16.77
2018-05-18T22:36:33.498Z,17.42
2018-05-18T22:39:01.589Z,15.83
2018-05-18T22:41:29.170Z,18.10
2018-05-18T22:43:56.713Z,16.87
2018-05-18T22:46:24.566Z,17.17
2018-05-18T22:48:52.116Z,18.23
2018-05-18T22:51:20.559Z,17.35
2018-05-18T22:53:48.264Z,16.65
2018-05-18T22:56:15.792Z,17.47
2018-05-18T22:58:43.328Z,17.55
2018-05-18T23:01:11.052Z,18.60
2018-05-18T23:03:38.588Z,17.62
2018-05-18T23:06:06.138Z,17.90
2018-05-18T23:08:33.829Z,16.45
2018-05-18T23:11:01.361Z,17.98
2018-05-18T23:13:28.892Z,18.98
2018-05-18T23:15:56.613Z,17.77
2018-05-18T23:18:24.155Z,16.52
2018-05-18T23:20:51.689Z,17.05
2018-05-18T23:23:19.264Z,16.75
2018-05-18T23:25:46.897Z,17.87
2018-05-18T23:28:14.354Z,19.05
2018-05-18T23:30:42.281Z,19.08
2018-05-18T23:33:09.834Z,17.02
2018-05-18T23:35:37.363Z,17.55
2018-05-18T23:38:05.054Z,17.48
2018-05-18T23:40:32.584Z,17.52
2018-05-18T23:43:00.124Z,18.42
2018-05-18T23:45:28.020Z,17.80
2018-05-18T23:47:55.549Z,17.73
2018-05-18T23:50:23.081Z,18.58
2018-05-18T23:52:50.657Z,20.15
2018-05-18T23:55:18.184Z,18.65
2018-05-18T23:57:45.712Z,18.30
